createdAt,value
2019-04-16T00:02:31.178Z,6.70
2019-04-16T00:05:08.536Z,6.70
2019-04-16T00:07:47.373Z,6.60
2019-04-16T00:10:42.506Z,6.50
2019-04-16T00:13:26.072Z,6.60
2019-04-16T00:15:58.292Z,6.50
2019-04-16T00:18:28.128Z,6.40
2019-04-16T00:21:16.142Z,6.40
2019-04-16T00:24:18.550Z,6.40
2019-04-16T00:26:59.303Z,6.30
2019-04-16T00:29:32.574Z,6.20
2019-04-16T00:32:09.185Z,6.10
2019-04-16T00:34:37.643Z,6.00
2019-04-16T00:37:07.616Z,5.90
2019-04-16T00:39:37.447Z,5.80
2019-04-16T00:42:07.270Z,5.80
2019-04-16T00:44:37.112Z,5.80
2019-04-16T00:47:07.195Z,5.90
2019-04-16T00:49:38.093Z,5.80
2019-04-16T00:52:08.028Z,5.70
2019-04-16T00:54:39.219Z,5.70
2019-04-16T00:57:09.461Z,5.70
2019-04-16T00:59:39.425Z,5.60
2019-04-16T01:02:14.008Z,5.60
2019-04-16T01:04:48.281Z,5.50
2019-04-16T01:07:22.374Z,5.40
2019-04-16T01:09:54.247Z,5.40
2019-04-16T01:12:25.164Z,5.40
2019-04-16T01:14:58.936Z,5.40
2019-04-16T01:17:27.009Z,5.40
2019-04-16T01:19:57.011Z,5.40
2019-04-16T01:22:26.935Z,5.40
2019-04-16T01:24:56.715Z,5.50
2019-04-16T01:27:36.507Z,5.40
2019-04-16T01:30:06.867Z,5.40
2019-04-16T01:32:55.171Z,5.50
2019-04-16T01:35:42.337Z,5.50
2019-04-16T01:38:27.805Z,5.60
2019-04-16T01:41:00.575Z,5.70
2019-04-16T01:43:30.368Z,5.60
2019-04-16T01:46:01.457Z,5.60
2019-04-16T01:48:31.669Z,5.50
2019-04-16T01:51:01.681Z,5.50
2019-04-16T01:53:31.553Z,5.50
2019-04-16T01:56:01.597Z,5.50
2019-04-16T01:58:33.844Z,5.50
2019-04-16T02:01:03.277Z,5.50
2019-04-16T02:03:33.099Z,5.40
2019-04-16T02:06:03.207Z,5.40
2019-04-16T02:08:33.106Z,5.40
2019-04-16T02:11:03.064Z,5.40
2019-04-16T02:13:32.915Z,5.40
2019-04-16T02:16:02.933Z,5.30
2019-04-16T02:18:32.765Z,5.40
2019-04-16T02:21:02.673Z,5.40
2019-04-16T02:23:32.661Z,5.30
2019-04-16T02:26:02.546Z,5.30
2019-04-16T02:28:32.325Z,5.30
2019-04-16T02:31:02.581Z,5.30
2019-04-16T02:33:32.562Z,5.30
2019-04-16T02:36:03.245Z,5.20
2019-04-16T02:38:33.061Z,5.10
2019-04-16T02:41:03.523Z,5.10
2019-04-16T02:43:39.749Z,5.00
2019-04-16T02:46:05.003Z,5.00
2019-04-16T02:48:34.889Z,4.90
2019-04-16T02:51:17.465Z,4.90
2019-04-16T02:53:58.776Z,4.80
2019-04-16T02:56:51.638Z,4.70
2019-04-16T02:59:22.650Z,4.70
2019-04-16T03:02:22.684Z,4.70
2019-04-16T03:04:58.175Z,4.60
2019-04-16T03:07:26.389Z,4.50
2019-04-16T03:10:01.752Z,4.50
2019-04-16T03:12:27.947Z,4.40
2019-04-16T03:15:00.855Z,4.40
2019-04-16T03:17:39.537Z,4.40
2019-04-16T03:20:11.387Z,4.30
2019-04-16T03:22:41.364Z,4.30
2019-04-16T03:25:13.547Z,4.30
2019-04-16T03:27:42.866Z,4.20
2019-04-16T03:30:12.760Z,4.20
2019-04-16T03:32:50.878Z,4.20
2019-04-16T03:35:25.384Z,4.20
2019-04-16T03:37:52.420Z,4.10
2019-04-16T03:40:25.518Z,4.10
2019-04-16T03:42:58.907Z,4.10
2019-04-16T03:45:25.609Z,4.10
2019-04-16T03:47:55.467Z,4.00
2019-04-16T03:50:25.454Z,4.00
2019-04-16T03:52:55.560Z,4.00
2019-04-16T03:55:26.313Z,4.10
2019-04-16T03:57:57.506Z,4.10
2019-04-16T04:00:27.346Z,4.10
2019-04-16T04:02:57.279Z,4.10
2019-04-16T04:05:27.312Z,4.10
2019-04-16T04:07:57.543Z,4.10
2019-04-16T04:10:30.764Z,4.10
2019-04-16T04:12:59.116Z,4.20
2019-04-16T04:15:29.126Z,4.20
2019-04-16T04:17:59.216Z,4.20
2019-04-16T04:20:29.110Z,4.20
2019-04-16T04:22:59.172Z,4.20
2019-04-16T04:25:29.054Z,4.20
2019-04-16T04:27:59.077Z,4.20
2019-04-16T04:30:29.662Z,4.10
2019-04-16T04:32:59.586Z,4.20
2019-04-16T04:35:29.495Z,4.20
2019-04-16T04:38:00.789Z,4.20
2019-04-16T04:40:43.796Z,4.20
2019-04-16T04:43:02.750Z,4.30
2019-04-16T04:45:32.640Z,4.30
2019-04-16T04:48:02.632Z,4.30
2019-04-16T04:50:35.264Z,4.40
2019-04-16T04:53:05.264Z,4.40
2019-04-16T04:55:35.220Z,4.50
2019-04-16T04:58:05.169Z,4.50
2019-04-16T05:00:39.906Z,4.60
2019-04-16T05:03:07.260Z,4.60
2019-04-16T05:05:42.226Z,4.60
2019-04-16T05:08:12.207Z,4.70
2019-04-16T05:10:43.242Z,4.70
2019-04-16T05:13:13.679Z,4.70
2019-04-16T05:15:43.804Z,4.70
2019-04-16T05:18:13.790Z,4.70
2019-04-16T05:20:46.706Z,4.80
2019-04-16T05:23:15.295Z,4.80
2019-04-16T05:25:45.158Z,4.90
2019-04-16T05:28:14.963Z,4.90
2019-04-16T05:30:46.344Z,5.00
2019-04-16T05:33:16.476Z,5.00
2019-04-16T05:35:46.305Z,5.10
2019-04-16T05:38:16.210Z,5.20
2019-04-16T05:40:46.345Z,5.20
2019-04-16T05:43:16.338Z,5.30
2019-04-16T05:45:47.931Z,5.40
2019-04-16T05:48:18.602Z,5.50
2019-04-16T05:50:49.437Z,5.60
2019-04-16T05:53:19.347Z,5.70
2019-04-16T05:56:06.701Z,5.80
2019-04-16T05:58:36.749Z,5.80
2019-04-16T06:01:34.844Z,6.00
2019-04-16T06:04:04.855Z,6.00
2019-04-16T06:06:34.804Z,6.10
2019-04-16T06:09:11.897Z,6.20
2019-04-16T06:11:39.169Z,6.30
2019-04-16T06:14:27.062Z,6.40
2019-04-16T06:17:14.997Z,6.50
2019-04-16T06:20:09.297Z,6.60
2019-04-16T06:23:00.881Z,6.70
2019-04-16T06:25:47.997Z,6.80
2019-04-16T06:28:39.927Z,7.00
2019-04-16T06:31:28.893Z,7.10
2019-04-16T06:34:16.158Z,7.20
2019-04-16T06:36:54.186Z,7.30
2019-04-16T06:39:35.507Z,7.50
2019-04-16T06:42:28.441Z,7.60
2019-04-16T06:45:01.632Z,7.70
2019-04-16T06:47:47.910Z,7.90
2019-04-16T06:50:39.196Z,8.00
2019-04-16T06:53:23.522Z,8.10
2019-04-16T06:56:20.238Z,8.20
2019-04-16T06:59:26.780Z,8.40
2019-04-16T07:02:32.312Z,8.50
2019-04-16T07:05:16.943Z,8.70
2019-04-16T07:08:17.892Z,8.80
2019-04-16T07:10:55.381Z,8.90
2019-04-16T07:13:25.465Z,9.00
2019-04-16T07:15:56.875Z,9.20
2019-04-16T07:18:27.330Z,9.30
2019-04-16T07:20:57.317Z,9.50
2019-04-16T07:23:27.441Z,9.60
2019-04-16T07:25:57.512Z,9.80
2019-04-16T07:28:46.603Z,9.90
2019-04-16T07:31:38.975Z,10.00
2019-04-16T07:34:31.063Z,10.20
2019-04-16T07:37:18.717Z,10.50
2019-04-16T07:40:10.002Z,10.70
2019-04-16T07:42:58.867Z,11.00
2019-04-16T07:45:53.793Z,11.20
2019-04-16T07:48:41.374Z,11.40
2019-04-16T07:51:33.377Z,11.60
2019-04-16T07:54:28.239Z,11.80
2019-04-16T07:56:56.113Z,11.90
2019-04-16T07:59:26.048Z,12.10
2019-04-16T08:01:56.944Z,12.10
2019-04-16T08:04:29.220Z,12.30
2019-04-16T08:06:59.737Z,12.30
2019-04-16T08:09:33.500Z,12.40
2019-04-16T08:12:01.479Z,12.50
2019-04-16T08:14:31.380Z,12.60
2019-04-16T08:17:02.811Z,12.70
2019-04-16T08:19:37.077Z,12.80
2019-04-16T08:22:04.477Z,12.90
2019-04-16T08:24:38.100Z,13.00
2019-04-16T08:27:09.822Z,13.10
2019-04-16T08:29:39.772Z,13.10
2019-04-16T08:32:12.821Z,13.30
2019-04-16T08:34:41.611Z,13.30
2019-04-16T08:37:11.507Z,13.40
2019-04-16T08:39:42.516Z,13.50
2019-04-16T08:42:12.457Z,13.60
2019-04-16T08:44:42.298Z,13.80
2019-04-16T08:47:12.968Z,13.80
2019-04-16T08:49:43.158Z,13.90
2019-04-16T08:52:12.984Z,14.00
2019-04-16T08:54:43.067Z,14.10
2019-04-16T08:57:12.874Z,14.10
2019-04-16T08:59:43.343Z,14.20
2019-04-16T09:02:13.499Z,14.30
2019-04-16T09:04:43.386Z,14.30
2019-04-16T09:07:32.352Z,14.50
2019-04-16T09:10:16.334Z,14.50
2019-04-16T09:12:35.099Z,14.60
2019-04-16T09:15:06.750Z,14.70
2019-04-16T09:17:41.484Z,14.70
2019-04-16T09:20:42.421Z,14.70
2019-04-16T09:23:12.310Z,14.80
2019-04-16T09:26:14.244Z,14.90
2019-04-16T09:29:01.521Z,14.90
2019-04-16T09:31:37.749Z,15.00
2019-04-16T09:34:20.681Z,15.20
2019-04-16T09:37:02.904Z,15.30
2019-04-16T09:39:43.007Z,15.30
2019-04-16T09:42:12.956Z,15.30
2019-04-16T09:44:42.915Z,15.50
2019-04-16T09:47:13.218Z,15.60
2019-04-16T09:49:43.422Z,15.80
2019-04-16T09:52:13.067Z,15.90
2019-04-16T09:54:44.451Z,15.90
2019-04-16T09:57:14.576Z,15.90
2019-04-16T09:59:48.840Z,15.90
2019-04-16T10:02:22.196Z,15.90
2019-04-16T10:04:52.565Z,15.90
2019-04-16T10:07:22.408Z,16.00
2019-04-16T10:09:54.468Z,16.10
2019-04-16T10:12:26.382Z,16.20
2019-04-16T10:14:57.982Z,16.30
2019-04-16T10:17:28.066Z,16.40
2019-04-16T10:19:57.870Z,16.40
2019-04-16T10:22:28.910Z,16.40
2019-04-16T10:25:06.200Z,16.50
2019-04-16T10:27:58.112Z,16.60
2019-04-16T10:30:45.653Z,16.70
2019-04-16T10:33:15.043Z,16.80
2019-04-16T10:35:45.988Z,16.80
2019-04-16T10:38:30.217Z,16.80
2019-04-16T10:41:12.870Z,16.70
2019-04-16T10:44:08.629Z,16.70
2019-04-16T10:46:57.605Z,16.70
2019-04-16T10:49:37.079Z,16.80
2019-04-16T10:52:24.138Z,17.00
2019-04-16T10:55:09.406Z,17.10
2019-04-16T10:58:10.988Z,17.20
2019-04-16T11:00:51.467Z,17.30
2019-04-16T11:03:28.898Z,17.50
2019-04-16T11:06:11.407Z,17.50
2019-04-16T11:08:42.736Z,17.40
2019-04-16T11:11:12.680Z,17.50
2019-04-16T11:13:59.179Z,17.50
2019-04-16T11:16:18.434Z,17.60
2019-04-16T11:18:49.101Z,17.70
2019-04-16T11:21:19.168Z,17.70
2019-04-16T11:23:50.835Z,17.90
2019-04-16T11:26:20.854Z,17.90
2019-04-16T11:28:51.261Z,17.90
2019-04-16T11:31:22.370Z,17.90
2019-04-16T11:33:52.513Z,18.00
2019-04-16T11:36:30.970Z,18.10
2019-04-16T11:38:55.309Z,18.10
2019-04-16T11:41:25.165Z,18.20
2019-04-16T11:43:55.115Z,18.20
2019-04-16T11:46:25.247Z,18.20
2019-04-16T11:48:55.307Z,18.20
2019-04-16T11:51:25.259Z,18.20
2019-04-16T11:53:55.417Z,18.20
2019-04-16T11:56:26.773Z,18.20
2019-04-16T11:58:57.604Z,18.30
2019-04-16T12:01:50.002Z,18.40
2019-04-16T12:04:39.195Z,18.40
2019-04-16T12:07:37.372Z,18.40
2019-04-16T12:10:29.814Z,18.40
2019-04-16T12:13:19.458Z,18.20
2019-04-16T12:16:11.376Z,18.40
2019-04-16T12:18:59.646Z,18.40
2019-04-16T12:21:48.700Z,18.30
2019-04-16T12:24:36.690Z,18.30
2019-04-16T12:27:14.719Z,18.30
2019-04-16T12:30:02.399Z,18.40
2019-04-16T12:32:39.191Z,18.40
2019-04-16T12:35:26.569Z,18.50
2019-04-16T12:38:18.368Z,18.40
2019-04-16T12:41:10.912Z,18.40
2019-04-16T12:44:05.794Z,18.40
2019-04-16T12:46:54.883Z,18.30
2019-04-16T12:49:59.321Z,18.30
2019-04-16T12:52:48.363Z,18.40
2019-04-16T12:55:36.838Z,18.40
2019-04-16T12:58:20.049Z,18.40
2019-04-16T13:01:09.219Z,18.50
2019-04-16T13:04:04.279Z,18.50
2019-04-16T13:06:44.044Z,18.60
2019-04-16T13:09:34.257Z,18.60
2019-04-16T13:12:38.641Z,18.70
2019-04-16T13:15:25.294Z,18.70
2019-04-16T13:18:13.665Z,18.70
2019-04-16T13:21:08.920Z,18.60
2019-04-16T13:23:42.714Z,18.60
2019-04-16T13:26:18.334Z,18.50
2019-04-16T13:28:48.127Z,18.40
2019-04-16T13:31:18.148Z,18.40
2019-04-16T13:33:50.923Z,18.50
2019-04-16T13:36:21.149Z,18.70
2019-04-16T13:39:09.106Z,18.80
2019-04-16T13:41:40.152Z,18.90
2019-04-16T13:44:10.676Z,18.90
2019-04-16T13:46:40.834Z,18.80
2019-04-16T13:49:31.371Z,18.80
2019-04-16T13:51:59.190Z,18.80
2019-04-16T13:54:40.882Z,18.80
2019-04-16T13:57:14.335Z,18.90
2019-04-16T14:00:05.233Z,18.90
2019-04-16T14:02:44.289Z,18.80
2019-04-16T14:05:14.336Z,18.80
2019-04-16T14:07:45.493Z,18.80
2019-04-16T14:10:15.314Z,18.80
2019-04-16T14:12:45.294Z,18.70
2019-04-16T14:15:30.815Z,18.70
2019-04-16T14:17:53.050Z,18.70
2019-04-16T14:20:18.906Z,18.60
2019-04-16T14:22:53.275Z,18.60
2019-04-16T14:25:22.046Z,18.60
2019-04-16T14:27:55.153Z,18.60
2019-04-16T14:30:27.695Z,18.60
2019-04-16T14:32:58.080Z,18.50
2019-04-16T14:35:33.618Z,18.60
2019-04-16T14:38:02.095Z,18.60
2019-04-16T14:40:32.822Z,18.50
2019-04-16T14:43:02.820Z,18.50
2019-04-16T14:46:00.712Z,18.50
2019-04-16T14:48:30.816Z,18.50
2019-04-16T14:51:00.728Z,18.50
2019-04-16T14:53:41.238Z,18.50
2019-04-16T14:56:15.944Z,18.40
2019-04-16T14:59:07.897Z,18.30
2019-04-16T15:01:46.532Z,18.30
2019-04-16T15:04:33.494Z,18.30
2019-04-16T15:07:31.640Z,18.30
2019-04-16T15:10:20.960Z,18.40
2019-04-16T15:13:01.767Z,18.40
2019-04-16T15:15:45.142Z,18.30
2019-04-16T15:18:26.874Z,18.30
2019-04-16T15:21:16.632Z,18.30
2019-04-16T15:24:29.746Z,18.20
2019-04-16T15:27:49.554Z,18.00
2019-04-16T15:31:02.609Z,18.10
2019-04-16T15:34:04.476Z,18.10
2019-04-16T15:36:49.840Z,18.10
2019-04-16T15:39:41.706Z,18.00
2019-04-16T15:42:38.698Z,17.80
2019-04-16T15:45:32.623Z,17.80
2019-04-16T15:48:51.606Z,17.80
2019-04-16T15:52:09.525Z,17.70
2019-04-16T15:55:43.540Z,17.80
2019-04-16T16:01:59.314Z,17.80
2019-04-16T16:04:40.909Z,17.80
2019-04-16T16:07:13.784Z,17.80
2019-04-16T16:10:16.062Z,17.90
2019-04-16T16:12:47.709Z,17.80
2019-04-16T16:15:19.228Z,17.80
2019-04-16T16:17:49.798Z,17.80
2019-04-16T16:20:20.105Z,17.80
2019-04-16T16:22:50.180Z,17.90
2019-04-16T16:25:20.111Z,17.90
2019-04-16T16:27:50.073Z,17.90
2019-04-16T16:30:19.973Z,18.00
2019-04-16T16:32:49.872Z,18.00
2019-04-16T16:35:22.226Z,18.00
2019-04-16T16:37:51.611Z,18.00
2019-04-16T16:40:21.527Z,18.00
2019-04-16T16:42:52.437Z,18.00
2019-04-16T16:45:25.689Z,18.00
2019-04-16T16:47:55.458Z,17.90
2019-04-16T16:50:25.557Z,17.90
2019-04-16T16:53:04.310Z,17.90
2019-04-16T16:55:38.824Z,17.90
2019-04-16T16:58:41.581Z,17.90
2019-04-16T17:01:34.715Z,17.90
2019-04-16T17:04:21.344Z,17.90
2019-04-16T17:06:51.395Z,17.90
2019-04-16T17:09:30.333Z,17.80
2019-04-16T17:11:59.393Z,17.80
2019-04-16T17:14:29.251Z,17.70
2019-04-16T17:17:11.737Z,17.60
2019-04-16T17:19:30.920Z,17.50
2019-04-16T17:22:01.000Z,17.40
2019-04-16T17:24:30.913Z,17.30
2019-04-16T17:27:01.034Z,17.20
2019-04-16T17:29:30.932Z,17.10
2019-04-16T17:32:00.967Z,17.00
2019-04-16T17:34:30.843Z,16.90
2019-04-16T17:37:00.763Z,16.80
2019-04-16T17:39:52.551Z,16.70
2019-04-16T17:42:28.797Z,16.50
2019-04-16T17:45:18.064Z,16.40
2019-04-16T17:48:09.891Z,16.30
2019-04-16T17:50:58.986Z,16.20
2019-04-16T17:53:46.872Z,16.00
2019-04-16T17:56:38.458Z,15.80
2019-04-16T17:59:21.803Z,15.70
2019-04-16T18:02:28.072Z,15.60
2019-04-16T18:05:23.253Z,15.50
2019-04-16T18:08:09.463Z,15.40
2019-04-16T18:10:53.066Z,15.20
2019-04-16T18:13:51.290Z,15.20
2019-04-16T18:16:40.483Z,15.10
2019-04-16T18:19:17.920Z,15.00
2019-04-16T18:22:15.721Z,14.90
2019-04-16T18:25:02.673Z,14.80
2019-04-16T18:27:50.013Z,14.70
2019-04-16T18:30:39.110Z,14.70
2019-04-16T18:33:22.015Z,14.60
2019-04-16T18:36:02.496Z,14.50
2019-04-16T18:38:56.276Z,14.50
2019-04-16T18:41:33.325Z,14.50
2019-04-16T18:44:29.124Z,14.40
2019-04-16T18:47:17.390Z,14.30
2019-04-16T18:49:48.123Z,14.30
2019-04-16T18:52:18.844Z,14.20
2019-04-16T18:54:50.007Z,14.20
2019-04-16T18:57:20.186Z,14.10
2019-04-16T18:59:50.436Z,14.00
2019-04-16T19:02:23.756Z,14.00
2019-04-16T19:04:56.843Z,13.90
2019-04-16T19:07:28.046Z,13.90
2019-04-16T19:09:59.231Z,13.90
2019-04-16T19:12:29.386Z,13.80
2019-04-16T19:15:00.657Z,13.70
2019-04-16T19:17:30.985Z,13.50
2019-04-16T19:20:03.916Z,13.40
2019-04-16T19:22:32.959Z,13.40
2019-04-16T19:25:03.041Z,13.30
2019-04-16T19:27:33.121Z,13.30
2019-04-16T19:30:04.612Z,13.30
2019-04-16T19:32:35.133Z,13.30
2019-04-16T19:35:10.080Z,13.20
2019-04-16T19:37:38.795Z,13.20
2019-04-16T19:40:08.779Z,13.10
2019-04-16T19:42:38.703Z,13.00
2019-04-16T19:45:11.743Z,12.90
2019-04-16T19:47:40.000Z,12.80
2019-04-16T19:50:10.030Z,12.80
2019-04-16T19:52:40.039Z,12.70
2019-04-16T19:55:12.680Z,12.60
2019-04-16T19:57:45.729Z,12.60
2019-04-16T20:00:22.041Z,12.50
2019-04-16T20:02:47.437Z,12.40
2019-04-16T20:05:18.417Z,12.30
2019-04-16T20:07:49.811Z,12.30
2019-04-16T20:10:19.617Z,12.30
2019-04-16T20:12:49.539Z,12.30
2019-04-16T20:15:20.022Z,12.30
2019-04-16T20:17:49.940Z,12.30
2019-04-16T20:20:20.887Z,12.30
2019-04-16T20:22:50.762Z,12.20
2019-04-16T20:25:20.922Z,12.20
2019-04-16T20:27:51.098Z,12.10
2019-04-16T20:30:24.270Z,12.10
2019-04-16T20:32:53.741Z,12.10
2019-04-16T20:35:23.899Z,12.10
2019-04-16T20:37:55.118Z,12.00
2019-04-16T20:40:27.113Z,12.00
2019-04-16T20:42:59.581Z,12.00
2019-04-16T20:45:29.679Z,11.90
2019-04-16T20:47:59.670Z,11.90
2019-04-16T20:50:29.643Z,11.80
2019-04-16T20:52:59.959Z,11.80
2019-04-16T20:55:31.119Z,11.70
2019-04-16T20:58:00.959Z,11.70
2019-04-16T21:00:32.797Z,11.70
2019-04-16T21:03:03.715Z,11.60
2019-04-16T21:05:35.807Z,11.60
2019-04-16T21:08:06.695Z,11.50
2019-04-16T21:10:36.598Z,11.40
2019-04-16T21:13:06.487Z,11.40
2019-04-16T21:15:36.544Z,11.40
2019-04-16T21:18:10.518Z,11.30
2019-04-16T21:20:38.188Z,11.30
2019-04-16T21:23:08.166Z,11.20
2019-04-16T21:25:39.349Z,11.20
2019-04-16T21:28:29.887Z,11.20
2019-04-16T21:31:04.377Z,11.10
2019-04-16T21:33:51.903Z,11.10
2019-04-16T21:36:37.186Z,11.10
2019-04-16T21:39:10.342Z,11.00
2019-04-16T21:41:41.849Z,11.00
2019-04-16T21:44:13.222Z,11.10
2019-04-16T21:46:43.535Z,11.10
2019-04-16T21:49:13.463Z,11.10
2019-04-16T21:52:07.042Z,11.10
2019-04-16T21:54:38.948Z,11.10
2019-04-16T21:57:13.598Z,11.10
2019-04-16T21:59:42.471Z,11.10
2019-04-16T22:02:20.592Z,11.10
2019-04-16T22:04:50.538Z,11.10
2019-04-16T22:07:24.263Z,11.10
2019-04-16T22:09:52.126Z,11.10
2019-04-16T22:12:22.081Z,11.10
2019-04-16T22:14:54.409Z,11.00
2019-04-16T22:17:23.649Z,11.00
2019-04-16T22:20:00.597Z,11.00
2019-04-16T22:22:27.559Z,10.90
2019-04-16T22:24:57.110Z,10.90
2019-04-16T22:27:27.062Z,10.90
2019-04-16T22:29:56.928Z,10.90
2019-04-16T22:32:30.293Z,10.80
2019-04-16T22:34:59.590Z,10.80
2019-04-16T22:37:29.537Z,10.70
2019-04-16T22:40:22.530Z,10.70
2019-04-16T22:43:08.998Z,10.70
2019-04-16T22:45:52.028Z,10.60
2019-04-16T22:48:19.960Z,10.70
2019-04-16T22:50:49.786Z,10.60
2019-04-16T22:53:19.770Z,10.60
2019-04-16T22:55:49.750Z,10.60
2019-04-16T22:58:24.032Z,10.50
2019-04-16T23:00:57.813Z,10.40
2019-04-16T23:03:27.830Z,10.30
2019-04-16T23:06:00.604Z,10.30
2019-04-16T23:08:29.474Z,10.20
2019-04-16T23:10:59.579Z,10.20
2019-04-16T23:13:32.677Z,10.10
2019-04-16T23:16:01.726Z,10.10
2019-04-16T23:18:31.834Z,10.10
2019-04-16T23:21:02.020Z,10.00
2019-04-16T23:23:32.007Z,10.00
2019-04-16T23:26:02.090Z,10.00
2019-04-16T23:28:32.074Z,9.90
2019-04-16T23:31:02.082Z,9.90
2019-04-16T23:33:32.812Z,9.80
2019-04-16T23:36:03.598Z,9.80
2019-04-16T23:38:33.468Z,9.80
2019-04-16T23:41:03.446Z,9.70
2019-04-16T23:43:43.641Z,9.60
2019-04-16T23:46:34.654Z,9.50
2019-04-16T23:49:25.058Z,9.40
2019-04-16T23:52:03.584Z,9.20
2019-04-16T23:54:44.003Z,9.10
2019-04-16T23:57:21.715Z,9.00
